createdAt,value
2019-02-20T00:04:40.026Z,2.90
2019-02-20T00:09:43.414Z,2.80
2019-02-20T00:14:46.806Z,2.80
2019-02-20T00:19:50.200Z,2.80
2019-02-20T00:24:53.595Z,2.70
2019-02-20T00:29:56.983Z,2.60
2019-02-20T00:35:00.389Z,2.50
2019-02-20T00:40:11.027Z,2.40
2019-02-20T00:45:25.127Z,2.40
2019-02-20T00:50:30.167Z,2.30
2019-02-20T00:55:33.549Z,2.20
2019-02-20T01:00:36.991Z,2.10
2019-02-20T01:05:40.376Z,2.10
2019-02-20T01:10:43.812Z,2.00
2019-02-20T01:15:47.221Z,1.90
2019-02-20T01:20:50.599Z,1.90
2019-02-20T01:25:53.987Z,1.80
2019-02-20T01:30:57.379Z,1.80
2019-02-20T01:36:00.771Z,1.70
2019-02-20T01:41:04.217Z,1.60
2019-02-20T01:46:07.641Z,1.50
2019-02-20T01:51:11.028Z,1.50
2019-02-20T01:56:14.444Z,1.40
2019-02-20T02:01:17.819Z,1.40
2019-02-20T02:06:21.199Z,1.30
2019-02-20T02:11:24.588Z,1.30
2019-02-20T02:16:27.971Z,1.20
2019-02-20T02:21:31.392Z,1.10
2019-02-20T02:26:34.819Z,1.00
2019-02-20T02:31:38.207Z,1.00
2019-02-20T02:36:41.606Z,0.90
2019-02-20T02:41:45.027Z,0.90
2019-02-20T02:46:48.390Z,0.80
2019-02-20T02:51:51.770Z,0.80
2019-02-20T02:56:55.155Z,0.70
2019-02-20T03:01:58.548Z,0.70
2019-02-20T03:07:01.939Z,0.60
2019-02-20T03:12:05.316Z,0.50
2019-02-20T03:17:08.691Z,0.50
2019-02-20T03:22:12.080Z,0.40
2019-02-20T03:27:15.467Z,0.40
2019-02-20T03:32:18.873Z,0.30
2019-02-20T03:37:22.315Z,0.30
2019-02-20T03:42:25.727Z,0.20
2019-02-20T03:47:29.100Z,0.20
2019-02-20T03:52:32.489Z,0.10
2019-02-20T03:57:36.039Z,0.10
2019-02-20T04:02:39.422Z,0.10
2019-02-20T04:07:42.806Z,0.00
2019-02-20T04:12:46.191Z,-0.10
2019-02-20T04:17:49.582Z,-0.10
2019-02-20T04:22:52.969Z,-0.20
2019-02-20T04:27:56.353Z,-0.20
2019-02-20T04:32:59.734Z,-0.20
2019-02-20T04:38:03.114Z,-0.30
2019-02-20T04:43:06.508Z,-0.30
2019-02-20T04:48:09.884Z,-0.40
2019-02-20T04:53:13.279Z,-0.40
2019-02-20T04:58:18.516Z,-0.50
2019-02-20T05:03:23.213Z,-0.50
2019-02-20T05:08:26.759Z,-0.50
2019-02-20T05:13:30.213Z,-0.50
2019-02-20T05:18:33.591Z,-0.60
2019-02-20T05:23:37.023Z,-0.60
2019-02-20T05:28:40.416Z,-0.60
2019-02-20T05:33:43.807Z,-0.60
2019-02-20T05:38:47.211Z,-0.60
2019-02-20T05:43:50.585Z,-0.60
2019-02-20T05:48:53.991Z,-0.60
2019-02-20T05:53:57.389Z,-0.60
2019-02-20T05:59:20.128Z,-0.60
2019-02-20T06:04:23.550Z,-0.60
2019-02-20T06:09:26.911Z,-0.60
2019-02-20T06:14:30.309Z,-0.60
2019-02-20T06:19:33.691Z,-0.60
2019-02-20T06:24:43.919Z,-0.60
2019-02-20T06:29:42.195Z,-0.60
2019-02-20T06:34:45.592Z,-0.60
2019-02-20T06:39:48.987Z,-0.60
2019-02-20T06:44:52.375Z,-0.60
2019-02-20T06:49:55.777Z,-0.60
2019-02-20T06:54:59.159Z,-0.60
2019-02-20T07:00:02.552Z,-0.50
2019-02-20T07:05:34.128Z,-0.50
2019-02-20T07:10:49.304Z,-0.50
2019-02-20T07:16:17.111Z,-0.40
2019-02-20T07:21:32.352Z,-0.30
2019-02-20T07:26:57.935Z,-0.30
2019-02-20T07:32:01.356Z,-0.20
2019-02-20T07:37:04.751Z,-0.10
2019-02-20T07:42:08.135Z,-0.10
2019-02-20T07:47:11.523Z,0.00
2019-02-20T07:52:14.916Z,0.10
2019-02-20T07:57:18.301Z,0.10
2019-02-20T08:02:21.694Z,0.20
2019-02-20T08:07:25.095Z,0.20
2019-02-20T08:12:28.507Z,0.30
2019-02-20T08:17:31.858Z,0.40
2019-02-20T08:22:35.255Z,0.40
2019-02-20T08:27:38.639Z,0.50
2019-02-20T08:32:42.011Z,0.60
2019-02-20T08:37:45.406Z,0.70
2019-02-20T08:42:48.796Z,0.80
2019-02-20T08:47:52.179Z,0.90
2019-02-20T08:52:55.568Z,0.90
2019-02-20T08:57:58.960Z,1.00
2019-02-20T09:03:02.415Z,1.10
2019-02-20T09:08:05.810Z,1.20
2019-02-20T09:13:09.210Z,1.30
2019-02-20T09:18:12.617Z,1.30
2019-02-20T09:23:16.011Z,1.40
2019-02-20T09:28:19.401Z,1.50
2019-02-20T09:33:22.788Z,1.70
2019-02-20T09:38:26.175Z,1.70
2019-02-20T09:43:29.558Z,1.80
2019-02-20T09:48:32.947Z,1.90
2019-02-20T09:53:36.345Z,2.10
2019-02-20T09:58:39.734Z,2.20
2019-02-20T10:03:43.128Z,2.30
2019-02-20T10:08:46.536Z,2.50
2019-02-20T10:13:49.920Z,2.60
2019-02-20T10:18:53.307Z,2.70
2019-02-20T10:23:56.696Z,2.80
2019-02-20T10:29:00.063Z,2.90
2019-02-20T10:34:03.480Z,3.10
2019-02-20T10:39:06.859Z,3.10
2019-02-20T10:44:10.231Z,3.20
2019-02-20T10:49:13.607Z,3.30
2019-02-20T10:54:17.001Z,3.40
2019-02-20T10:59:20.389Z,3.50
2019-02-20T11:04:23.763Z,3.70
2019-02-20T11:09:27.214Z,3.80
2019-02-20T11:14:30.604Z,3.90
2019-02-20T11:19:33.999Z,4.00
2019-02-20T11:24:37.409Z,4.20
2019-02-20T11:29:40.765Z,4.30
2019-02-20T11:34:44.164Z,4.60
2019-02-20T11:39:47.545Z,4.80
2019-02-20T11:44:50.933Z,5.10
2019-02-20T11:49:54.328Z,5.30
2019-02-20T11:54:57.713Z,5.50
2019-02-20T12:00:01.091Z,5.80
2019-02-20T12:05:05.613Z,6.00
2019-02-20T12:10:14.896Z,6.20
2019-02-20T12:15:18.287Z,6.30
2019-02-20T12:20:21.674Z,6.50
2019-02-20T12:25:25.073Z,6.60
2019-02-20T12:30:28.460Z,6.60
2019-02-20T12:35:31.848Z,6.70
2019-02-20T12:40:35.307Z,6.80
2019-02-20T12:45:39.624Z,6.90
2019-02-20T12:50:43.003Z,6.90
2019-02-20T12:55:46.391Z,7.00
2019-02-20T13:00:49.815Z,7.10
2019-02-20T13:05:53.240Z,7.20
2019-02-20T13:10:56.763Z,7.30
2019-02-20T13:16:00.192Z,7.40
2019-02-20T13:21:03.612Z,7.50
2019-02-20T13:26:07.024Z,7.70
2019-02-20T13:31:10.412Z,7.80
2019-02-20T13:36:13.816Z,7.90
2019-02-20T13:41:17.208Z,8.00
2019-02-20T13:46:20.605Z,8.10
2019-02-20T13:51:23.980Z,8.20
2019-02-20T13:56:27.640Z,8.40
2019-02-20T14:01:31.024Z,8.50
2019-02-20T14:06:34.414Z,8.60
2019-02-20T14:11:37.787Z,8.70
2019-02-20T14:16:41.179Z,8.70
2019-02-20T14:21:44.968Z,8.80
2019-02-20T14:26:48.405Z,8.90
2019-02-20T14:31:51.788Z,8.90
2019-02-20T14:36:55.180Z,8.90
2019-02-20T14:41:58.563Z,8.80
2019-02-20T14:47:01.943Z,8.80
2019-02-20T14:52:05.348Z,8.80
2019-02-20T14:57:08.780Z,8.70
2019-02-20T15:02:12.196Z,8.70
2019-02-20T15:07:15.712Z,8.70
2019-02-20T15:12:19.090Z,8.70
2019-02-20T15:17:22.475Z,8.70
2019-02-20T15:22:25.999Z,8.70
2019-02-20T15:27:29.650Z,8.60
2019-02-20T15:32:33.088Z,8.60
2019-02-20T15:37:38.112Z,8.60
2019-02-20T15:42:41.517Z,8.60
2019-02-20T15:47:44.901Z,8.50
2019-02-20T15:52:48.556Z,8.50
2019-02-20T15:57:51.948Z,8.50
2019-02-20T16:02:55.327Z,8.40
2019-02-20T16:07:58.722Z,8.30
2019-02-20T16:13:02.107Z,8.20
2019-02-20T16:18:05.506Z,8.20
2019-02-20T16:23:08.951Z,8.10
2019-02-20T16:28:12.354Z,8.00
2019-02-20T16:33:15.727Z,7.90
2019-02-20T16:38:19.131Z,7.90
2019-02-20T16:43:22.524Z,7.80
2019-02-20T16:48:25.931Z,7.70
2019-02-20T16:53:29.308Z,7.70
2019-02-20T16:58:33.071Z,7.60
2019-02-20T17:03:36.472Z,7.50
2019-02-20T17:08:39.848Z,7.50
2019-02-20T17:13:43.239Z,7.40
2019-02-20T17:18:46.636Z,7.30
2019-02-20T17:23:50.306Z,7.20
2019-02-20T17:28:53.691Z,7.20
2019-02-20T17:33:57.086Z,7.10
2019-02-20T17:39:00.480Z,7.00
2019-02-20T17:44:03.935Z,6.90
2019-02-20T17:49:07.335Z,6.90
2019-02-20T17:54:10.733Z,6.80
2019-02-20T17:59:14.116Z,6.70
2019-02-20T18:04:17.500Z,6.70
2019-02-20T18:09:20.884Z,6.60
2019-02-20T18:14:24.359Z,6.50
2019-02-20T18:19:27.744Z,6.50
2019-02-20T18:24:31.131Z,6.40
2019-02-20T18:29:34.619Z,6.40
2019-02-20T18:34:39.683Z,6.30
2019-02-20T18:39:43.097Z,6.20
2019-02-20T18:44:46.495Z,6.10
2019-02-20T18:49:49.879Z,6.10
2019-02-20T18:54:53.287Z,6.00
2019-02-20T18:59:56.678Z,5.90
2019-02-20T19:05:00.146Z,5.90
2019-02-20T19:10:06.333Z,5.80
2019-02-20T19:15:27.805Z,5.70
2019-02-20T19:20:42.922Z,5.70
2019-02-20T19:25:49.389Z,5.60
2019-02-20T19:31:09.105Z,5.50
2019-02-20T19:36:36.765Z,5.50
2019-02-20T19:41:51.333Z,5.40
2019-02-20T19:46:57.785Z,5.40
2019-02-20T19:52:23.419Z,5.30
2019-02-20T19:57:38.348Z,5.20
2019-02-20T20:02:50.412Z,5.10
2019-02-20T20:08:02.590Z,5.10
2019-02-20T20:13:17.547Z,5.00
2019-02-20T20:18:26.463Z,4.90
2019-02-20T20:23:33.016Z,4.90
2019-02-20T20:28:44.676Z,4.80
2019-02-20T20:34:16.714Z,4.70
2019-02-20T20:39:42.408Z,4.60
2019-02-20T20:44:51.623Z,4.60
2019-02-20T20:50:15.792Z,4.50
2019-02-20T20:55:43.139Z,4.40
2019-02-20T21:01:07.195Z,4.40
2019-02-20T21:06:16.229Z,4.30
2019-02-20T21:11:46.839Z,4.20
2019-02-20T21:16:59.147Z,4.20
2019-02-20T21:22:31.071Z,4.10
2019-02-20T21:27:58.191Z,4.10
2019-02-20T21:33:21.050Z,4.00
2019-02-20T21:38:39.635Z,4.00
2019-02-20T21:43:52.047Z,3.90
2019-02-20T21:49:04.239Z,3.90
2019-02-20T21:54:19.215Z,3.90
2019-02-20T21:59:25.684Z,3.80
2019-02-20T22:04:34.815Z,3.80
2019-02-20T22:09:44.249Z,3.80
2019-02-20T22:15:10.228Z,3.70
2019-02-20T22:20:19.621Z,3.70
2019-02-20T22:25:53.092Z,3.70
2019-02-20T22:30:59.551Z,3.70
2019-02-20T22:36:06.023Z,3.60
2019-02-20T22:41:27.418Z,3.60
2019-02-20T22:46:33.882Z,3.60
2019-02-20T22:51:55.236Z,3.50
2019-02-20T22:57:22.186Z,3.50
2019-02-20T23:02:31.235Z,3.50
2019-02-20T23:07:46.470Z,3.50
2019-02-20T23:12:55.701Z,3.50
2019-02-20T23:17:59.106Z,3.50
2019-02-20T23:23:02.498Z,3.40
2019-02-20T23:28:05.872Z,3.40
2019-02-20T23:33:09.255Z,3.40
2019-02-20T23:38:12.706Z,3.30
2019-02-20T23:43:16.086Z,3.30
2019-02-20T23:48:19.481Z,3.20
2019-02-20T23:53:22.873Z,3.20
2019-02-20T23:58:26.255Z,3.10
